sensor_id;sensor_type;location;lat;lon;timestamp;temperature;humidity
35127;DHT22;21300;52.006;5.798;2023-02-01T00:01:23;4.30;99.90
35127;DHT22;21300;52.006;5.798;2023-02-01T00:03:49;4.30;99.90
35127;DHT22;21300;52.006;5.798;2023-02-01T00:06:14;4.30;99.90
35127;DHT22;21300;52.006;5.798;2023-02-01T00:08:40;4.30;99.90
35127;DHT22;21300;52.006;5.798;2023-02-01T00:11:08;4.30;99.90
35127;DHT22;21300;52.006;5.798;2023-02-01T00:13:36;4.30;99.90
35127;DHT22;21300;52.006;5.798;2023-02-01T00:16:09;4.30;99.90
35127;DHT22;21300;52.006;5.798;2023-02-01T00:18:36;4.30;99.90
35127;DHT22;21300;52.006;5.798;2023-02-01T00:21:02;4.30;99.90
35127;DHT22;21300;52.006;5.798;2023-02-01T00:23:27;4.30;99.90
35127;DHT22;21300;52.006;5.798;2023-02-01T00:25:53;4.30;99.90
35127;DHT22;21300;52.006;5.798;2023-02-01T00:28:18;4.30;99.90
35127;DHT22;21300;52.006;5.798;2023-02-01T00:30:44;4.30;99.90
35127;DHT22;21300;52.006;5.798;2023-02-01T00:33:29;4.30;99.90
35127;DHT22;21300;52.006;5.798;2023-02-01T00:35:59;4.30;99.90
35127;DHT22;21300;52.006;5.798;2023-02-01T00:38:26;4.30;99.90
35127;DHT22;21300;52.006;5.798;2023-02-01T00:40:52;4.30;99.90
35127;DHT22;21300;52.006;5.798;2023-02-01T00:43:17;4.30;99.90
35127;DHT22;21300;52.006;5.798;2023-02-01T00:45:45;4.30;99.90
35127;DHT22;21300;52.006;5.798;2023-02-01T00:48:11;4.30;99.90
35127;DHT22;21300;52.006;5.798;2023-02-01T00:50:41;4.30;99.90
35127;DHT22;21300;52.006;5.798;2023-02-01T00:53:08;4.30;99.90
35127;DHT22;21300;52.006;5.798;2023-02-01T00:55:34;4.30;99.90
35127;DHT22;21300;52.006;5.798;2023-02-01T00:58:00;4.30;99.90
35127;DHT22;21300;52.006;5.798;2023-02-01T01:00:25;4.30;99.90
35127;DHT22;21300;52.006;5.798;2023-02-01T01:02:51;4.20;99.90
35127;DHT22;21300;52.006;5.798;2023-02-01T01:05:17;4.30;99.90
35127;DHT22;21300;52.006;5.798;2023-02-01T01:07:42;4.30;99.90
35127;DHT22;21300;52.006;5.798;2023-02-01T01:10:08;4.20;99.90
35127;DHT22;21300;52.006;5.798;2023-02-01T01:12:34;4.30;99.90
35127;DHT22;21300;52.006;5.798;2023-02-01T01:14:59;4.30;99.90
35127;DHT22;21300;52.006;5.798;2023-02-01T01:17:25;4.30;99.90
35127;DHT22;21300;52.006;5.798;2023-02-01T01:19:50;4.30;99.90
35127;DHT22;21300;52.006;5.798;2023-02-01T01:22:16;4.30;99.90
35127;DHT22;21300;52.006;5.798;2023-02-01T01:24:43;4.30;99.90
35127;DHT22;21300;52.006;5.798;2023-02-01T01:27:09;4.30;99.90
35127;DHT22;21300;52.006;5.798;2023-02-01T01:29:34;4.30;99.90
35127;DHT22;21300;52.006;5.798;2023-02-01T01:32:00;4.30;99.90
35127;DHT22;21300;52.006;5.798;2023-02-01T01:34:25;4.30;99.90
35127;DHT22;21300;52.006;5.798;2023-02-01T01:36:51;4.30;99.90
35127;DHT22;21300;52.006;5.798;2023-02-01T01:39:16;4.30;99.90
35127;DHT22;21300;52.006;5.798;2023-02-01T01:41:42;4.20;99.90
35127;DHT22;21300;52.006;5.798;2023-02-01T01:47:12;4.30;99.90
35127;DHT22;21300;52.006;5.798;2023-02-01T01:49:39;4.30;99.90
35127;DHT22;21300;52.006;5.798;2023-02-01T01:52:05;4.30;99.90
35127;DHT22;21300;52.006;5.798;2023-02-01T01:54:43;4.30;99.90
35127;DHT22;21300;52.006;5.798;2023-02-01T01:57:24;4.30;99.90
35127;DHT22;21300;52.006;5.798;2023-02-01T02:00:08;4.30;99.90
35127;DHT22;21300;52.006;5.798;2023-02-01T02:02:36;4.30;99.90
35127;DHT22;21300;52.006;5.798;2023-02-01T02:05:03;4.20;99.90
35127;DHT22;21300;52.006;5.798;2023-02-01T02:07:33;4.30;99.90
35127;DHT22;21300;52.006;5.798;2023-02-01T02:10:01;4.20;99.90
35127;DHT22;21300;52.006;5.798;2023-02-01T02:12:27;4.20;99.90
35127;DHT22;21300;52.006;5.798;2023-02-01T02:14:53;4.20;99.90
35127;DHT22;21300;52.006;5.798;2023-02-01T02:37:52;4.20;99.90
35127;DHT22;21300;52.006;5.798;2023-02-01T02:40:20;4.20;99.90
35127;DHT22;21300;52.006;5.798;2023-02-01T02:43:22;4.20;99.90
35127;DHT22;21300;52.006;5.798;2023-02-01T02:46:24;4.20;99.90
35127;DHT22;21300;52.006;5.798;2023-02-01T02:49:12;4.20;99.90
35127;DHT22;21300;52.006;5.798;2023-02-01T02:51:51;4.20;99.90
35127;DHT22;21300;52.006;5.798;2023-02-01T02:54:41;4.20;99.90
35127;DHT22;21300;52.006;5.798;2023-02-01T03:00:12;4.20;99.90
35127;DHT22;21300;52.006;5.798;2023-02-01T03:02:58;4.20;99.90
35127;DHT22;21300;52.006;5.798;2023-02-01T03:05:45;4.20;99.90
35127;DHT22;21300;52.006;5.798;2023-02-01T03:08:13;4.20;99.90
35127;DHT22;21300;52.006;5.798;2023-02-01T03:15:55;4.20;99.90
35127;DHT22;21300;52.006;5.798;2023-02-01T03:18:51;4.20;99.90
35127;DHT22;21300;52.006;5.798;2023-02-01T03:21:19;4.20;99.90
35127;DHT22;21300;52.006;5.798;2023-02-01T03:23:47;4.20;99.90
35127;DHT22;21300;52.006;5.798;2023-02-01T03:26:16;4.20;99.90
35127;DHT22;21300;52.006;5.798;2023-02-01T03:28:48;4.20;99.90
35127;DHT22;21300;52.006;5.798;2023-02-01T03:31:15;4.20;99.90
35127;DHT22;21300;52.006;5.798;2023-02-01T03:33:41;4.20;99.90
35127;DHT22;21300;52.006;5.798;2023-02-01T03:41:29;4.20;99.90
35127;DHT22;21300;52.006;5.798;2023-02-01T03:44:23;4.20;99.90
35127;DHT22;21300;52.006;5.798;2023-02-01T03:49:28;4.20;99.90
35127;DHT22;21300;52.006;5.798;2023-02-01T03:51:57;4.20;99.90
35127;DHT22;21300;52.006;5.798;2023-02-01T03:54:24;4.20;99.90
35127;DHT22;21300;52.006;5.798;2023-02-01T03:56:51;4.20;99.90
35127;DHT22;21300;52.006;5.798;2023-02-01T03:59:18;4.20;99.90
35127;DHT22;21300;52.006;5.798;2023-02-01T04:01:43;4.20;99.90
35127;DHT22;21300;52.006;5.798;2023-02-01T04:04:09;4.20;99.90
35127;DHT22;21300;52.006;5.798;2023-02-01T04:06:35;4.30;99.90
35127;DHT22;21300;52.006;5.798;2023-02-01T04:09:00;4.20;99.90
35127;DHT22;21300;52.006;5.798;2023-02-01T04:11:26;4.20;99.90
35127;DHT22;21300;52.006;5.798;2023-02-01T04:13:53;4.20;99.90
35127;DHT22;21300;52.006;5.798;2023-02-01T04:16:18;4.20;99.90
35127;DHT22;21300;52.006;5.798;2023-02-01T04:18:44;4.20;99.90
35127;DHT22;21300;52.006;5.798;2023-02-01T04:21:09;4.20;99.90
35127;DHT22;21300;52.006;5.798;2023-02-01T04:23:35;4.20;99.90
35127;DHT22;21300;52.006;5.798;2023-02-01T04:26:02;4.30;99.90
35127;DHT22;21300;52.006;5.798;2023-02-01T04:28:29;4.20;99.90
35127;DHT22;21300;52.006;5.798;2023-02-01T04:30:55;4.20;99.90
35127;DHT22;21300;52.006;5.798;2023-02-01T04:33:20;4.20;99.90
35127;DHT22;21300;52.006;5.798;2023-02-01T04:35:47;4.20;99.90
35127;DHT22;21300;52.006;5.798;2023-02-01T04:40:58;4.20;99.90
35127;DHT22;21300;52.006;5.798;2023-02-01T04:43:24;4.30;99.90
35127;DHT22;21300;52.006;5.798;2023-02-01T04:45:50;4.30;99.90
35127;DHT22;21300;52.006;5.798;2023-02-01T04:48:17;4.20;99.90
35127;DHT22;21300;52.006;5.798;2023-02-01T04:50:44;4.30;99.90
35127;DHT22;21300;52.006;5.798;2023-02-01T04:53:13;4.20;99.90
35127;DHT22;21300;52.006;5.798;2023-02-01T04:55:40;4.30;99.90
35127;DHT22;21300;52.006;5.798;2023-02-01T04:58:05;4.30;99.90
35127;DHT22;21300;52.006;5.798;2023-02-01T05:00:31;4.30;99.90
35127;DHT22;21300;52.006;5.798;2023-02-01T05:02:56;4.30;99.90
35127;DHT22;21300;52.006;5.798;2023-02-01T05:05:22;4.30;99.90
35127;DHT22;21300;52.006;5.798;2023-02-01T05:07:47;4.30;99.90
35127;DHT22;21300;52.006;5.798;2023-02-01T05:10:13;4.30;99.90
35127;DHT22;21300;52.006;5.798;2023-02-01T05:12:39;4.30;99.90
35127;DHT22;21300;52.006;5.798;2023-02-01T05:15:23;4.20;99.90
35127;DHT22;21300;52.006;5.798;2023-02-01T05:17:48;4.30;99.90
35127;DHT22;21300;52.006;5.798;2023-02-01T05:20:14;4.30;99.90
35127;DHT22;21300;52.006;5.798;2023-02-01T05:22:41;4.30;99.90
35127;DHT22;21300;52.006;5.798;2023-02-01T05:25:07;4.30;99.90
35127;DHT22;21300;52.006;5.798;2023-02-01T05:27:32;4.30;99.90
35127;DHT22;21300;52.006;5.798;2023-02-01T05:29:58;4.30;99.90
35127;DHT22;21300;52.006;5.798;2023-02-01T05:32:24;4.30;99.90
35127;DHT22;21300;52.006;5.798;2023-02-01T05:34:49;4.30;99.90
35127;DHT22;21300;52.006;5.798;2023-02-01T05:37:15;4.30;99.90
35127;DHT22;21300;52.006;5.798;2023-02-01T05:39:40;4.30;99.90
35127;DHT22;21300;52.006;5.798;2023-02-01T05:42:06;4.30;99.90
35127;DHT22;21300;52.006;5.798;2023-02-01T05:44:31;4.30;99.90
35127;DHT22;21300;52.006;5.798;2023-02-01T05:46:57;4.30;99.90
35127;DHT22;21300;52.006;5.798;2023-02-01T05:49:23;4.30;99.90
35127;DHT22;21300;52.006;5.798;2023-02-01T05:51:48;4.30;99.90
35127;DHT22;21300;52.006;5.798;2023-02-01T05:54:14;4.40;99.90
35127;DHT22;21300;52.006;5.798;2023-02-01T05:56:39;4.40;99.90
35127;DHT22;21300;52.006;5.798;2023-02-01T05:59:06;4.40;99.90
35127;DHT22;21300;52.006;5.798;2023-02-01T06:01:31;4.40;99.90
35127;DHT22;21300;52.006;5.798;2023-02-01T06:03:57;4.40;99.90
35127;DHT22;21300;52.006;5.798;2023-02-01T06:06:22;4.40;99.90
35127;DHT22;21300;52.006;5.798;2023-02-01T06:08:48;4.40;99.90
35127;DHT22;21300;52.006;5.798;2023-02-01T06:11:14;4.40;99.90
35127;DHT22;21300;52.006;5.798;2023-02-01T06:13:39;4.40;99.90
35127;DHT22;21300;52.006;5.798;2023-02-01T06:16:05;4.40;99.90
35127;DHT22;21300;52.006;5.798;2023-02-01T06:18:33;4.40;99.90
35127;DHT22;21300;52.006;5.798;2023-02-01T06:20:59;4.40;99.90
35127;DHT22;21300;52.006;5.798;2023-02-01T06:23:26;4.50;99.90
35127;DHT22;21300;52.006;5.798;2023-02-01T06:25:52;4.40;99.90
35127;DHT22;21300;52.006;5.798;2023-02-01T06:28:18;4.50;99.90
35127;DHT22;21300;52.006;5.798;2023-02-01T06:30:44;4.40;99.90
35127;DHT22;21300;52.006;5.798;2023-02-01T06:33:13;4.50;99.90
35127;DHT22;21300;52.006;5.798;2023-02-01T06:35:41;4.50;99.90
35127;DHT22;21300;52.006;5.798;2023-02-01T06:38:07;4.50;99.90
35127;DHT22;21300;52.006;5.798;2023-02-01T06:40:33;4.50;99.90
35127;DHT22;21300;52.006;5.798;2023-02-01T06:42:59;4.50;99.90
35127;DHT22;21300;52.006;5.798;2023-02-01T06:45:24;4.50;99.90
35127;DHT22;21300;52.006;5.798;2023-02-01T06:47:50;4.50;99.90
35127;DHT22;21300;52.006;5.798;2023-02-01T06:50:16;4.50;99.90
35127;DHT22;21300;52.006;5.798;2023-02-01T06:52:41;4.50;99.90
35127;DHT22;21300;52.006;5.798;2023-02-01T06:55:07;4.50;99.90
35127;DHT22;21300;52.006;5.798;2023-02-01T06:57:33;4.50;99.90
35127;DHT22;21300;52.006;5.798;2023-02-01T06:59:59;4.50;99.90
35127;DHT22;21300;52.006;5.798;2023-02-01T07:02:25;4.50;99.90
35127;DHT22;21300;52.006;5.798;2023-02-01T07:04:50;4.50;99.90
35127;DHT22;21300;52.006;5.798;2023-02-01T07:07:16;4.60;99.90
35127;DHT22;21300;52.006;5.798;2023-02-01T07:09:42;4.60;99.90
35127;DHT22;21300;52.006;5.798;2023-02-01T07:12:07;4.60;99.90
35127;DHT22;21300;52.006;5.798;2023-02-01T07:14:33;4.60;99.90
35127;DHT22;21300;52.006;5.798;2023-02-01T07:16:59;4.60;99.90
35127;DHT22;21300;52.006;5.798;2023-02-01T07:19:24;4.60;99.90
35127;DHT22;21300;52.006;5.798;2023-02-01T07:21:50;4.60;99.90
35127;DHT22;21300;52.006;5.798;2023-02-01T07:24:15;4.60;99.90
35127;DHT22;21300;52.006;5.798;2023-02-01T07:26:41;4.60;99.90
35127;DHT22;21300;52.006;5.798;2023-02-01T07:29:06;4.60;99.90
35127;DHT22;21300;52.006;5.798;2023-02-01T07:31:32;4.60;99.90
35127;DHT22;21300;52.006;5.798;2023-02-01T07:33:57;4.60;99.90
35127;DHT22;21300;52.006;5.798;2023-02-01T07:36:24;4.60;99.90
35127;DHT22;21300;52.006;5.798;2023-02-01T07:38:50;4.60;99.90
35127;DHT22;21300;52.006;5.798;2023-02-01T07:41:17;4.60;99.90
35127;DHT22;21300;52.006;5.798;2023-02-01T07:43:42;4.60;99.90
35127;DHT22;21300;52.006;5.798;2023-02-01T07:46:10;4.60;99.90
35127;DHT22;21300;52.006;5.798;2023-02-01T07:48:35;4.60;99.90
35127;DHT22;21300;52.006;5.798;2023-02-01T07:51:08;4.60;99.90
35127;DHT22;21300;52.006;5.798;2023-02-01T07:53:34;4.60;99.90
35127;DHT22;21300;52.006;5.798;2023-02-01T07:56:01;4.70;99.90
35127;DHT22;21300;52.006;5.798;2023-02-01T07:58:27;4.70;99.90
35127;DHT22;21300;52.006;5.798;2023-02-01T08:00:53;4.60;99.90
35127;DHT22;21300;52.006;5.798;2023-02-01T08:03:37;4.70;99.90
35127;DHT22;21300;52.006;5.798;2023-02-01T08:06:03;4.70;99.90
35127;DHT22;21300;52.006;5.798;2023-02-01T08:08:28;4.60;99.90
35127;DHT22;21300;52.006;5.798;2023-02-01T08:10:58;4.60;99.90
35127;DHT22;21300;52.006;5.798;2023-02-01T08:13:24;4.60;99.90
35127;DHT22;21300;52.006;5.798;2023-02-01T08:15:50;4.70;99.90
35127;DHT22;21300;52.006;5.798;2023-02-01T08:18:15;4.70;99.90
35127;DHT22;21300;52.006;5.798;2023-02-01T08:20:43;4.60;99.90
35127;DHT22;21300;52.006;5.798;2023-02-01T08:23:11;4.70;99.90
35127;DHT22;21300;52.006;5.798;2023-02-01T08:25:37;4.70;99.90
35127;DHT22;21300;52.006;5.798;2023-02-01T08:28:04;4.70;99.90
35127;DHT22;21300;52.006;5.798;2023-02-01T08:30:30;4.70;99.90
35127;DHT22;21300;52.006;5.798;2023-02-01T08:32:55;4.70;99.90
35127;DHT22;21300;52.006;5.798;2023-02-01T08:35:21;4.70;99.90
35127;DHT22;21300;52.006;5.798;2023-02-01T08:37:46;4.70;99.90
35127;DHT22;21300;52.006;5.798;2023-02-01T08:40:12;4.70;99.90
35127;DHT22;21300;52.006;5.798;2023-02-01T08:42:39;4.70;99.90
35127;DHT22;21300;52.006;5.798;2023-02-01T08:45:27;4.70;99.90
35127;DHT22;21300;52.006;5.798;2023-02-01T08:47:55;4.70;99.90
35127;DHT22;21300;52.006;5.798;2023-02-01T08:50:22;4.70;99.90
35127;DHT22;21300;52.006;5.798;2023-02-01T08:52:48;4.70;99.90
35127;DHT22;21300;52.006;5.798;2023-02-01T08:55:14;4.70;99.90
35127;DHT22;21300;52.006;5.798;2023-02-01T08:57:40;4.80;99.90
35127;DHT22;21300;52.006;5.798;2023-02-01T09:00:09;4.70;99.90
35127;DHT22;21300;52.006;5.798;2023-02-01T09:02:36;4.80;99.90
35127;DHT22;21300;52.006;5.798;2023-02-01T09:05:02;4.80;99.90
35127;DHT22;21300;52.006;5.798;2023-02-01T09:07:28;4.70;99.90
35127;DHT22;21300;52.006;5.798;2023-02-01T09:09:53;4.70;99.90
35127;DHT22;21300;52.006;5.798;2023-02-01T09:12:22;4.80;99.90
35127;DHT22;21300;52.006;5.798;2023-02-01T09:14:48;4.80;99.90
35127;DHT22;21300;52.006;5.798;2023-02-01T09:17:13;4.80;99.90
35127;DHT22;21300;52.006;5.798;2023-02-01T09:19:39;4.80;99.90
35127;DHT22;21300;52.006;5.798;2023-02-01T09:22:05;4.80;99.90
35127;DHT22;21300;52.006;5.798;2023-02-01T09:27:15;4.80;99.90
35127;DHT22;21300;52.006;5.798;2023-02-01T09:29:40;4.90;99.90
35127;DHT22;21300;52.006;5.798;2023-02-01T09:32:06;4.90;99.90
35127;DHT22;21300;52.006;5.798;2023-02-01T09:34:32;4.90;99.90
35127;DHT22;21300;52.006;5.798;2023-02-01T09:36:58;4.90;99.90
35127;DHT22;21300;52.006;5.798;2023-02-01T09:39:24;4.90;99.90
35127;DHT22;21300;52.006;5.798;2023-02-01T09:47:13;4.90;99.90
35127;DHT22;21300;52.006;5.798;2023-02-01T09:49:48;5.00;99.90
35127;DHT22;21300;52.006;5.798;2023-02-01T09:52:17;5.00;99.90
35127;DHT22;21300;52.006;5.798;2023-02-01T09:54:55;5.00;99.90
35127;DHT22;21300;52.006;5.798;2023-02-01T09:57:43;5.00;99.90
35127;DHT22;21300;52.006;5.798;2023-02-01T10:00:24;5.00;99.90
35127;DHT22;21300;52.006;5.798;2023-02-01T10:02:54;5.00;99.90
35127;DHT22;21300;52.006;5.798;2023-02-01T10:10:52;5.10;99.90
35127;DHT22;21300;52.006;5.798;2023-02-01T10:16:14;5.10;99.90
35127;DHT22;21300;52.006;5.798;2023-02-01T10:21:42;5.10;99.90
35127;DHT22;21300;52.006;5.798;2023-02-01T10:24:25;5.20;99.90
35127;DHT22;21300;52.006;5.798;2023-02-01T10:27:06;5.20;99.90
35127;DHT22;21300;52.006;5.798;2023-02-01T10:29:37;5.20;99.90
35127;DHT22;21300;52.006;5.798;2023-02-01T10:32:14;5.20;99.90
35127;DHT22;21300;52.006;5.798;2023-02-01T10:34:41;5.20;99.90
35127;DHT22;21300;52.006;5.798;2023-02-01T10:37:26;5.20;99.90
35127;DHT22;21300;52.006;5.798;2023-02-01T10:39:54;5.30;99.90
35127;DHT22;21300;52.006;5.798;2023-02-01T10:42:25;5.30;99.90
35127;DHT22;21300;52.006;5.798;2023-02-01T10:44:51;5.30;99.90
35127;DHT22;21300;52.006;5.798;2023-02-01T10:47:19;5.30;99.90
35127;DHT22;21300;52.006;5.798;2023-02-01T10:50:21;5.30;99.90
35127;DHT22;21300;52.006;5.798;2023-02-01T10:53:18;5.30;99.90
35127;DHT22;21300;52.006;5.798;2023-02-01T10:58:44;5.40;99.90
35127;DHT22;21300;52.006;5.798;2023-02-01T11:01:17;5.40;99.90
35127;DHT22;21300;52.006;5.798;2023-02-01T11:03:58;5.40;99.90
35127;DHT22;21300;52.006;5.798;2023-02-01T11:06:44;5.40;99.90
35127;DHT22;21300;52.006;5.798;2023-02-01T11:09:22;5.40;99.90
35127;DHT22;21300;52.006;5.798;2023-02-01T11:14:19;5.40;99.90
35127;DHT22;21300;52.006;5.798;2023-02-01T11:16:53;5.40;99.90
35127;DHT22;21300;52.006;5.798;2023-02-01T11:19:19;5.40;99.90
35127;DHT22;21300;52.006;5.798;2023-02-01T11:21:49;5.40;99.90
35127;DHT22;21300;52.006;5.798;2023-02-01T11:24:31;5.40;99.90
35127;DHT22;21300;52.006;5.798;2023-02-01T11:27:00;5.40;99.90
35127;DHT22;21300;52.006;5.798;2023-02-01T11:29:34;5.40;99.90
35127;DHT22;21300;52.006;5.798;2023-02-01T11:32:01;5.40;99.90
35127;DHT22;21300;52.006;5.798;2023-02-01T11:34:43;5.50;99.90
35127;DHT22;21300;52.006;5.798;2023-02-01T11:37:19;5.40;99.90
35127;DHT22;21300;52.006;5.798;2023-02-01T11:39:54;5.50;99.90
35127;DHT22;21300;52.006;5.798;2023-02-01T11:42:21;5.50;99.90
35127;DHT22;21300;52.006;5.798;2023-02-01T11:44:47;5.50;99.90
35127;DHT22;21300;52.006;5.798;2023-02-01T11:47:31;5.50;99.90
35127;DHT22;21300;52.006;5.798;2023-02-01T11:49:59;5.50;99.90
35127;DHT22;21300;52.006;5.798;2023-02-01T12:06:23;5.50;99.90
35127;DHT22;21300;52.006;5.798;2023-02-01T12:09:08;5.50;99.90
35127;DHT22;21300;52.006;5.798;2023-02-01T12:11:51;5.50;99.90
35127;DHT22;21300;52.006;5.798;2023-02-01T12:14:45;5.50;99.90
35127;DHT22;21300;52.006;5.798;2023-02-01T12:17:33;5.60;99.90
35127;DHT22;21300;52.006;5.798;2023-02-01T12:20:28;5.60;99.90
35127;DHT22;21300;52.006;5.798;2023-02-01T12:23:06;5.60;99.90
35127;DHT22;21300;52.006;5.798;2023-02-01T12:31:10;5.60;99.90
35127;DHT22;21300;52.006;5.798;2023-02-01T12:36:58;5.60;99.90
35127;DHT22;21300;52.006;5.798;2023-02-01T12:42:18;5.60;99.90
35127;DHT22;21300;52.006;5.798;2023-02-01T12:48:00;5.70;99.90
35127;DHT22;21300;52.006;5.798;2023-02-01T12:50:32;5.70;99.90
35127;DHT22;21300;52.006;5.798;2023-02-01T12:56:13;5.70;99.90
35127;DHT22;21300;52.006;5.798;2023-02-01T12:59:01;5.70;99.90
35127;DHT22;21300;52.006;5.798;2023-02-01T13:01:38;5.70;99.90
35127;DHT22;21300;52.006;5.798;2023-02-01T13:04:34;5.70;99.90
35127;DHT22;21300;52.006;5.798;2023-02-01T13:07:19;5.70;99.90
35127;DHT22;21300;52.006;5.798;2023-02-01T13:10:16;5.80;99.90
35127;DHT22;21300;52.006;5.798;2023-02-01T13:12:54;5.80;99.90
35127;DHT22;21300;52.006;5.798;2023-02-01T13:17:51;5.80;99.90
35127;DHT22;21300;52.006;5.798;2023-02-01T13:23:02;5.80;99.90
35127;DHT22;21300;52.006;5.798;2023-02-01T13:25:38;5.80;99.90
35127;DHT22;21300;52.006;5.798;2023-02-01T13:28:14;5.80;99.90
35127;DHT22;21300;52.006;5.798;2023-02-01T13:31:04;5.80;99.90
35127;DHT22;21300;52.006;5.798;2023-02-01T13:39:20;5.90;99.90
35127;DHT22;21300;52.006;5.798;2023-02-01T13:42:16;5.90;99.90
35127;DHT22;21300;52.006;5.798;2023-02-01T13:44:52;5.90;99.90
35127;DHT22;21300;52.006;5.798;2023-02-01T13:50:29;5.90;99.90
35127;DHT22;21300;52.006;5.798;2023-02-01T13:53:17;5.90;99.90
35127;DHT22;21300;52.006;5.798;2023-02-01T14:16:44;6.00;99.90
35127;DHT22;21300;52.006;5.798;2023-02-01T14:19:31;6.00;99.90
35127;DHT22;21300;52.006;5.798;2023-02-01T14:24:51;6.00;99.90
35127;DHT22;21300;52.006;5.798;2023-02-01T14:27:22;6.00;99.90
35127;DHT22;21300;52.006;5.798;2023-02-01T14:29:56;6.00;99.90
35127;DHT22;21300;52.006;5.798;2023-02-01T14:32:26;6.00;99.90
35127;DHT22;21300;52.006;5.798;2023-02-01T14:34:59;6.00;99.90
35127;DHT22;21300;52.006;5.798;2023-02-01T14:37:31;6.00;99.90
35127;DHT22;21300;52.006;5.798;2023-02-01T14:42:46;6.00;99.90
35127;DHT22;21300;52.006;5.798;2023-02-01T14:47:54;6.00;99.90
35127;DHT22;21300;52.006;5.798;2023-02-01T14:56:12;6.00;99.90
35127;DHT22;21300;52.006;5.798;2023-02-01T14:58:59;6.10;99.90
35127;DHT22;21300;52.006;5.798;2023-02-01T15:01:35;6.10;99.90
35127;DHT22;21300;52.006;5.798;2023-02-01T15:09:00;6.10;99.90
35127;DHT22;21300;52.006;5.798;2023-02-01T15:11:26;6.10;99.90
35127;DHT22;21300;52.006;5.798;2023-02-01T15:13:53;6.10;99.90
35127;DHT22;21300;52.006;5.798;2023-02-01T15:16:23;6.10;99.90
35127;DHT22;21300;52.006;5.798;2023-02-01T15:18:49;6.10;99.90
35127;DHT22;21300;52.006;5.798;2023-02-01T15:23:43;6.10;99.90
35127;DHT22;21300;52.006;5.798;2023-02-01T15:26:08;6.10;99.90
35127;DHT22;21300;52.006;5.798;2023-02-01T15:28:34;6.20;99.90
35127;DHT22;21300;52.006;5.798;2023-02-01T15:31:02;6.10;99.90
35127;DHT22;21300;52.006;5.798;2023-02-01T15:33:29;6.20;99.90
35127;DHT22;21300;52.006;5.798;2023-02-01T15:36:09;6.10;99.90
35127;DHT22;21300;52.006;5.798;2023-02-01T15:38:42;6.20;99.90
35127;DHT22;21300;52.006;5.798;2023-02-01T15:41:19;6.20;99.90
35127;DHT22;21300;52.006;5.798;2023-02-01T15:44:07;6.20;99.90
35127;DHT22;21300;52.006;5.798;2023-02-01T15:46:40;6.20;99.90
35127;DHT22;21300;52.006;5.798;2023-02-01T15:49:23;6.20;99.90
35127;DHT22;21300;52.006;5.798;2023-02-01T15:51:50;6.20;99.90
35127;DHT22;21300;52.006;5.798;2023-02-01T15:54:28;6.20;99.90
35127;DHT22;21300;52.006;5.798;2023-02-01T15:56:58;6.20;99.90
35127;DHT22;21300;52.006;5.798;2023-02-01T15:59:32;6.20;99.90
35127;DHT22;21300;52.006;5.798;2023-02-01T16:02:01;6.20;99.90
35127;DHT22;21300;52.006;5.798;2023-02-01T16:04:29;6.20;99.90
35127;DHT22;21300;52.006;5.798;2023-02-01T16:07:01;6.20;99.90
35127;DHT22;21300;52.006;5.798;2023-02-01T16:09:41;6.20;99.90
35127;DHT22;21300;52.006;5.798;2023-02-01T16:12:34;6.20;99.90
35127;DHT22;21300;52.006;5.798;2023-02-01T16:15:10;6.20;99.90
35127;DHT22;21300;52.006;5.798;2023-02-01T16:17:35;6.20;99.90
35127;DHT22;21300;52.006;5.798;2023-02-01T16:20:01;6.20;99.90
35127;DHT22;21300;52.006;5.798;2023-02-01T16:22:26;6.20;99.90
35127;DHT22;21300;52.006;5.798;2023-02-01T16:24:52;6.20;99.90
35127;DHT22;21300;52.006;5.798;2023-02-01T16:27:18;6.20;99.90
35127;DHT22;21300;52.006;5.798;2023-02-01T16:29:43;6.20;99.90
35127;DHT22;21300;52.006;5.798;2023-02-01T16:32:17;6.20;99.90
35127;DHT22;21300;52.006;5.798;2023-02-01T16:34:44;6.20;99.90
35127;DHT22;21300;52.006;5.798;2023-02-01T16:37:17;6.20;99.90
35127;DHT22;21300;52.006;5.798;2023-02-01T16:39:44;6.30;99.90
35127;DHT22;21300;52.006;5.798;2023-02-01T16:42:11;6.20;99.90
35127;DHT22;21300;52.006;5.798;2023-02-01T16:44:37;6.30;99.90
35127;DHT22;21300;52.006;5.798;2023-02-01T16:47:03;6.30;99.90
35127;DHT22;21300;52.006;5.798;2023-02-01T16:49:34;6.30;99.90
35127;DHT22;21300;52.006;5.798;2023-02-01T16:52:00;6.30;99.90
35127;DHT22;21300;52.006;5.798;2023-02-01T16:54:25;6.30;99.90
35127;DHT22;21300;52.006;5.798;2023-02-01T16:56:52;6.30;99.90
35127;DHT22;21300;52.006;5.798;2023-02-01T16:59:18;6.40;99.90
35127;DHT22;21300;52.006;5.798;2023-02-01T17:01:44;6.40;99.90
35127;DHT22;21300;52.006;5.798;2023-02-01T17:04:09;6.30;99.90
35127;DHT22;21300;52.006;5.798;2023-02-01T17:06:37;6.30;99.90
35127;DHT22;21300;52.006;5.798;2023-02-01T17:09:04;6.40;99.90
35127;DHT22;21300;52.006;5.798;2023-02-01T17:11:30;6.40;99.90
35127;DHT22;21300;52.006;5.798;2023-02-01T17:14:16;6.40;99.90
35127;DHT22;21300;52.006;5.798;2023-02-01T17:16:42;6.30;99.90
35127;DHT22;21300;52.006;5.798;2023-02-01T17:19:14;6.30;99.90
35127;DHT22;21300;52.006;5.798;2023-02-01T17:21:45;6.30;99.90
35127;DHT22;21300;52.006;5.798;2023-02-01T17:24:15;6.40;99.90
35127;DHT22;21300;52.006;5.798;2023-02-01T17:26:42;6.30;99.90
35127;DHT22;21300;52.006;5.798;2023-02-01T17:29:08;6.30;99.90
35127;DHT22;21300;52.006;5.798;2023-02-01T17:31:40;6.40;99.90
35127;DHT22;21300;52.006;5.798;2023-02-01T17:34:07;6.30;99.90
35127;DHT22;21300;52.006;5.798;2023-02-01T17:36:33;6.30;99.90
35127;DHT22;21300;52.006;5.798;2023-02-01T17:39:01;6.30;99.90
35127;DHT22;21300;52.006;5.798;2023-02-01T17:41:26;6.30;99.90
35127;DHT22;21300;52.006;5.798;2023-02-01T17:43:52;6.40;99.90
35127;DHT22;21300;52.006;5.798;2023-02-01T17:46:18;6.30;99.90
35127;DHT22;21300;52.006;5.798;2023-02-01T17:48:45;6.30;99.90
35127;DHT22;21300;52.006;5.798;2023-02-01T17:51:22;6.40;99.90
35127;DHT22;21300;52.006;5.798;2023-02-01T17:53:48;6.40;99.90
35127;DHT22;21300;52.006;5.798;2023-02-01T17:56:16;6.30;99.90
35127;DHT22;21300;52.006;5.798;2023-02-01T17:58:42;6.30;99.90
35127;DHT22;21300;52.006;5.798;2023-02-01T18:01:20;6.30;99.90
35127;DHT22;21300;52.006;5.798;2023-02-01T18:03:46;6.40;99.90
35127;DHT22;21300;52.006;5.798;2023-02-01T18:06:14;6.30;99.90
35127;DHT22;21300;52.006;5.798;2023-02-01T18:08:41;6.30;99.90
35127;DHT22;21300;52.006;5.798;2023-02-01T18:11:14;6.40;99.90
35127;DHT22;21300;52.006;5.798;2023-02-01T18:13:41;6.30;99.90
35127;DHT22;21300;52.006;5.798;2023-02-01T18:18:43;6.40;99.90
35127;DHT22;21300;52.006;5.798;2023-02-01T18:21:09;6.30;99.90
35127;DHT22;21300;52.006;5.798;2023-02-01T18:23:35;6.30;99.90
35127;DHT22;21300;52.006;5.798;2023-02-01T18:26:00;6.40;99.90
35127;DHT22;21300;52.006;5.798;2023-02-01T18:28:26;6.40;99.90
35127;DHT22;21300;52.006;5.798;2023-02-01T18:30:52;6.40;99.90
35127;DHT22;21300;52.006;5.798;2023-02-01T18:33:19;6.30;99.90
35127;DHT22;21300;52.006;5.798;2023-02-01T18:35:45;6.40;99.90
35127;DHT22;21300;52.006;5.798;2023-02-01T18:38:11;6.40;99.90
35127;DHT22;21300;52.006;5.798;2023-02-01T18:40:47;6.40;99.90